createdAt,value
2019-05-02T00:00:40.992Z,970.19
2019-05-02T00:01:40.981Z,970.17
2019-05-02T00:02:40.975Z,970.17
2019-05-02T00:03:42.799Z,970.16
2019-05-02T00:04:40.950Z,970.18
2019-05-02T00:05:40.961Z,970.17
2019-05-02T00:06:42.887Z,970.14
2019-05-02T00:07:40.918Z,970.20
2019-05-02T00:08:40.916Z,970.06
2019-05-02T00:09:47.415Z,970.05
2019-05-02T00:10:41.887Z,970.22
2019-05-02T00:11:40.881Z,970.18
2019-05-02T00:12:40.864Z,970.13
2019-05-02T00:13:40.860Z,970.17
2019-05-02T00:14:40.862Z,970.14
2019-05-02T00:15:40.840Z,970.11
2019-05-02T00:16:45.032Z,970.15
2019-05-02T00:17:41.807Z,970.13
2019-05-02T00:18:40.800Z,970.09
2019-05-02T00:19:45.218Z,970.11
2019-05-02T00:20:41.778Z,970.06
2019-05-02T00:21:43.101Z,970.12
2019-05-02T00:22:40.757Z,970.03
2019-05-02T00:23:40.747Z,970.08
2019-05-02T00:24:41.089Z,970.05
2019-05-02T00:25:40.733Z,970.03
2019-05-02T00:26:40.717Z,970.01
2019-05-02T00:27:40.715Z,969.99
2019-05-02T00:28:42.958Z,970.02
2019-05-02T00:29:41.681Z,970.02
2019-05-02T00:30:40.668Z,969.99
2019-05-02T00:31:41.999Z,969.97
2019-05-02T00:32:41.647Z,969.95
2019-05-02T00:33:40.659Z,969.97
2019-05-02T00:34:40.625Z,969.92
2019-05-02T00:35:45.533Z,969.96
2019-05-02T00:36:41.605Z,969.94
2019-05-02T00:37:40.597Z,969.94
2019-05-02T00:38:40.592Z,969.92
2019-05-02T00:39:40.572Z,969.91
2019-05-02T00:40:40.562Z,969.90
2019-05-02T00:41:40.586Z,969.89
2019-05-02T00:42:40.542Z,969.86
2019-05-02T00:43:40.527Z,969.83
2019-05-02T00:44:42.068Z,969.79
2019-05-02T00:45:41.516Z,969.82
2019-05-02T00:46:40.500Z,969.82
2019-05-02T00:47:42.409Z,969.81
2019-05-02T00:48:41.473Z,969.80
2019-05-02T00:49:40.467Z,969.86
2019-05-02T00:50:44.962Z,969.76
2019-05-02T00:51:40.443Z,969.82
2019-05-02T00:52:40.431Z,969.80
2019-05-02T00:53:44.497Z,969.86
2019-05-02T00:54:41.423Z,969.81
2019-05-02T00:55:40.408Z,969.75
2019-05-02T00:56:44.005Z,969.73
2019-05-02T00:57:40.377Z,969.77
2019-05-02T00:58:40.368Z,969.74
2019-05-02T00:59:42.410Z,969.74
2019-05-02T01:00:40.368Z,969.78
2019-05-02T01:01:40.345Z,969.77
2019-05-02T01:02:41.721Z,969.69
2019-05-02T01:03:40.315Z,969.69
2019-05-02T01:04:40.305Z,969.73
2019-05-02T01:05:40.353Z,969.74
2019-05-02T01:06:54.807Z,969.72
2019-05-02T01:07:40.276Z,969.71
2019-05-02T01:08:40.259Z,969.66
2019-05-02T01:09:42.154Z,969.68
2019-05-02T01:10:41.246Z,969.70
2019-05-02T01:11:40.226Z,969.60
2019-05-02T01:12:44.310Z,969.63
2019-05-02T01:13:41.206Z,969.64
2019-05-02T01:14:40.203Z,969.64
2019-05-02T01:15:44.153Z,969.60
2019-05-02T01:16:40.172Z,969.66
2019-05-02T01:17:40.165Z,969.61
2019-05-02T01:18:41.293Z,969.60
2019-05-02T01:19:40.155Z,969.60
2019-05-02T01:20:40.142Z,969.57
2019-05-02T01:21:40.202Z,969.58
2019-05-02T01:22:40.109Z,969.56
2019-05-02T01:23:40.121Z,969.57
2019-05-02T01:24:41.675Z,969.51
2019-05-02T01:25:40.076Z,969.59
2019-05-02T01:26:40.066Z,969.54
2019-05-02T01:27:41.213Z,969.59
2019-05-02T01:28:40.042Z,969.52
2019-05-02T01:29:40.063Z,969.47
2019-05-02T01:30:42.346Z,969.53
2019-05-02T01:31:40.010Z,969.53
2019-05-02T01:32:40.001Z,969.55
2019-05-02T01:33:41.660Z,969.49
2019-05-02T01:34:39.979Z,969.47
2019-05-02T01:35:40.000Z,969.50
2019-05-02T01:36:41.057Z,969.50
2019-05-02T01:37:39.945Z,969.44
2019-05-02T01:38:39.938Z,969.46
2019-05-02T01:39:42.753Z,969.48
2019-05-02T01:40:39.923Z,969.48
2019-05-02T01:41:39.905Z,969.48
2019-05-02T01:42:44.249Z,969.45
2019-05-02T01:43:39.881Z,969.41
2019-05-02T01:44:39.872Z,969.41
2019-05-02T01:45:41.856Z,969.41
2019-05-02T01:46:39.858Z,969.37
2019-05-02T01:47:39.851Z,969.41
2019-05-02T01:48:45.058Z,969.33
2019-05-02T01:49:40.816Z,969.38
2019-05-02T01:50:39.867Z,969.38
2019-05-02T01:51:42.055Z,969.38
2019-05-02T01:52:40.809Z,969.36
2019-05-02T01:53:39.789Z,969.35
2019-05-02T01:54:40.766Z,969.29
2019-05-02T01:55:40.775Z,969.27
2019-05-02T01:56:39.740Z,969.28
2019-05-02T01:57:39.997Z,969.27
2019-05-02T01:58:39.720Z,969.28
2019-05-02T01:59:39.712Z,969.25
2019-05-02T02:00:40.858Z,969.27
2019-05-02T02:01:39.686Z,969.25
2019-05-02T02:02:39.677Z,969.26
2019-05-02T02:03:40.482Z,969.25
2019-05-02T02:04:40.655Z,969.23
2019-05-02T02:05:39.651Z,969.22
2019-05-02T02:06:43.418Z,969.20
2019-05-02T02:07:40.647Z,969.21
2019-05-02T02:08:39.610Z,969.18
2019-05-02T02:09:44.117Z,969.20
2019-05-02T02:10:43.602Z,969.18
2019-05-02T02:11:39.604Z,969.23
2019-05-02T02:12:41.216Z,969.15
2019-05-02T02:13:40.583Z,969.15
2019-05-02T02:14:39.554Z,969.19
2019-05-02T02:15:39.542Z,969.18
2019-05-02T02:16:40.468Z,969.22
2019-05-02T02:17:39.530Z,969.14
2019-05-02T02:18:39.501Z,969.14
2019-05-02T02:19:40.704Z,969.12
2019-05-02T02:20:39.481Z,969.12
2019-05-02T02:21:42.560Z,969.16
2019-05-02T02:22:41.119Z,969.11
2019-05-02T02:23:39.455Z,969.14
2019-05-02T02:24:39.437Z,969.17
2019-05-02T02:25:39.427Z,969.14
2019-05-02T02:26:39.443Z,969.15
2019-05-02T02:27:39.406Z,969.13
2019-05-02T02:28:39.401Z,969.11
2019-05-02T02:29:43.952Z,969.12
2019-05-02T02:30:40.374Z,969.12
2019-05-02T02:31:45.992Z,969.15
2019-05-02T02:32:40.363Z,969.13
2019-05-02T02:33:41.051Z,969.11
2019-05-02T02:34:40.338Z,969.11
2019-05-02T02:35:49.816Z,969.12
2019-05-02T02:36:40.343Z,969.09
2019-05-02T02:37:39.298Z,969.12
2019-05-02T02:38:39.293Z,969.10
2019-05-02T02:39:39.301Z,969.04
2019-05-02T02:40:39.269Z,969.10
2019-05-02T02:41:39.258Z,969.10
2019-05-02T02:42:39.245Z,969.06
2019-05-02T02:43:39.233Z,969.08
2019-05-02T02:44:39.935Z,969.09
2019-05-02T02:45:39.214Z,969.06
2019-05-02T02:46:40.066Z,969.07
2019-05-02T02:47:39.193Z,969.02
2019-05-02T02:48:40.559Z,968.97
2019-05-02T02:49:39.195Z,969.01
2019-05-02T02:50:43.136Z,969.03
2019-05-02T02:51:40.159Z,968.97
2019-05-02T02:52:44.453Z,968.98
2019-05-02T02:53:40.129Z,968.99
2019-05-02T02:54:43.518Z,969.02
2019-05-02T02:55:40.119Z,968.99
2019-05-02T02:56:40.402Z,969.05
2019-05-02T02:57:39.114Z,969.01
2019-05-02T02:58:45.503Z,969.07
2019-05-02T02:59:40.074Z,969.07
2019-05-02T03:00:41.391Z,969.02
2019-05-02T03:01:40.052Z,969.07
2019-05-02T03:02:47.827Z,969.07
2019-05-02T03:03:40.018Z,969.03
2019-05-02T03:04:44.227Z,969.03
2019-05-02T03:05:39.998Z,969.02
2019-05-02T03:06:44.962Z,969.07
2019-05-02T03:07:39.987Z,969.00
2019-05-02T03:08:46.397Z,969.01
2019-05-02T03:09:39.959Z,969.05
2019-05-02T03:10:39.930Z,969.02
2019-05-02T03:11:40.052Z,968.96
2019-05-02T03:12:41.439Z,968.99
2019-05-02T03:13:51.503Z,968.95
2019-05-02T03:14:40.927Z,969.00
2019-05-02T03:15:39.890Z,968.99
2019-05-02T03:16:45.969Z,969.03
2019-05-02T03:17:39.881Z,968.99
2019-05-02T03:18:40.729Z,968.97
2019-05-02T03:19:38.845Z,968.98
2019-05-02T03:20:40.648Z,968.97
2019-05-02T03:21:38.827Z,968.98
2019-05-02T03:22:41.943Z,968.95
2019-05-02T03:23:38.802Z,969.00
2019-05-02T03:24:44.053Z,969.05
2019-05-02T03:25:50.486Z,969.03
2019-05-02T03:26:39.786Z,969.01
2019-05-02T03:27:40.390Z,969.04
2019-05-02T03:28:38.754Z,969.00
2019-05-02T03:29:43.925Z,969.00
2019-05-02T03:30:39.732Z,969.02
2019-05-02T03:31:38.732Z,969.08
2019-05-02T03:32:38.829Z,969.07
2019-05-02T03:33:52.680Z,969.04
2019-05-02T03:34:51.990Z,969.00
2019-05-02T03:35:43.723Z,969.05
2019-05-02T03:36:39.675Z,969.02
2019-05-02T03:37:44.694Z,969.06
2019-05-02T03:38:39.641Z,969.01
2019-05-02T03:39:38.678Z,968.95
2019-05-02T03:40:41.098Z,969.02
2019-05-02T03:41:38.613Z,968.95
2019-05-02T03:42:44.550Z,969.00
2019-05-02T03:43:39.591Z,968.97
2019-05-02T03:44:38.577Z,968.95
2019-05-02T03:45:42.803Z,968.94
2019-05-02T03:46:38.557Z,968.91
2019-05-02T03:47:43.997Z,968.91
2019-05-02T03:48:39.598Z,968.94
2019-05-02T03:49:40.818Z,968.90
2019-05-02T03:50:39.510Z,968.86
2019-05-02T03:51:38.503Z,968.90
2019-05-02T03:52:43.993Z,968.91
2019-05-02T03:53:39.480Z,968.83
2019-05-02T03:54:49.022Z,968.82
2019-05-02T03:55:39.460Z,968.80
2019-05-02T03:56:38.448Z,968.83
2019-05-02T03:57:41.881Z,968.83
2019-05-02T03:58:38.435Z,968.81
2019-05-02T03:59:41.614Z,968.84
2019-05-02T04:00:38.411Z,968.79
2019-05-02T04:01:41.174Z,968.76
2019-05-02T04:02:38.392Z,968.80
2019-05-02T04:03:41.076Z,968.83
2019-05-02T04:04:39.362Z,968.78
2019-05-02T04:05:40.439Z,968.87
2019-05-02T04:06:38.346Z,968.76
2019-05-02T04:07:40.565Z,968.84
2019-05-02T04:08:38.318Z,968.85
2019-05-02T04:09:39.763Z,968.86
2019-05-02T04:10:38.302Z,968.82
2019-05-02T04:11:40.679Z,968.86
2019-05-02T04:12:38.307Z,968.81
2019-05-02T04:13:38.296Z,968.84
2019-05-02T04:14:38.921Z,968.85
2019-05-02T04:15:38.248Z,968.81
2019-05-02T04:16:38.238Z,968.79
2019-05-02T04:17:38.221Z,968.87
2019-05-02T04:18:38.220Z,968.82
2019-05-02T04:19:38.199Z,968.84
2019-05-02T04:20:43.515Z,968.84
2019-05-02T04:21:39.196Z,968.81
2019-05-02T04:22:42.702Z,968.84
2019-05-02T04:23:39.174Z,968.86
2019-05-02T04:24:38.169Z,968.85
2019-05-02T04:25:38.143Z,968.90
2019-05-02T04:26:38.124Z,968.85
2019-05-02T04:27:38.113Z,968.90
2019-05-02T04:28:38.121Z,968.85
2019-05-02T04:29:38.105Z,968.80
2019-05-02T04:30:38.082Z,968.85
2019-05-02T04:31:38.070Z,968.88
2019-05-02T04:32:38.059Z,968.90
2019-05-02T04:33:38.057Z,968.86
2019-05-02T04:34:38.036Z,968.86
2019-05-02T04:35:38.033Z,968.89
2019-05-02T04:36:38.015Z,968.87
2019-05-02T04:37:41.148Z,968.84
2019-05-02T04:38:47.464Z,968.88
2019-05-02T04:39:39.323Z,968.84
2019-05-02T04:40:41.717Z,968.84
2019-05-02T04:41:42.299Z,968.87
2019-05-02T04:42:39.300Z,968.88
2019-05-02T04:43:40.805Z,968.89
2019-05-02T04:44:44.387Z,968.89
2019-05-02T04:45:54.796Z,968.84
2019-05-02T04:46:38.968Z,968.85
2019-05-02T04:47:39.010Z,968.87
2019-05-02T04:48:43.774Z,968.84
2019-05-02T04:49:39.336Z,968.89
2019-05-02T04:50:38.004Z,968.91
2019-05-02T04:51:38.272Z,968.87
2019-05-02T04:52:47.242Z,968.89
2019-05-02T04:53:44.347Z,968.90
2019-05-02T04:54:39.105Z,968.92
2019-05-02T04:55:38.237Z,968.90
2019-05-02T04:56:42.089Z,968.98
2019-05-02T04:57:46.882Z,968.98
2019-05-02T04:58:40.659Z,968.91
2019-05-02T04:59:39.430Z,968.93
2019-05-02T05:00:39.199Z,968.98
2019-05-02T05:01:43.444Z,968.96
2019-05-02T05:02:39.989Z,968.92
2019-05-02T05:03:37.759Z,968.92
2019-05-02T05:04:42.465Z,968.93
2019-05-02T05:05:40.325Z,968.93
2019-05-02T05:06:40.749Z,968.93
2019-05-02T05:07:44.477Z,968.93
2019-05-02T05:08:41.562Z,968.89
2019-05-02T05:09:40.148Z,968.98
2019-05-02T05:10:41.498Z,968.88
2019-05-02T05:11:38.638Z,968.92
2019-05-02T05:12:41.691Z,968.91
2019-05-02T05:13:37.621Z,968.92
2019-05-02T05:14:42.767Z,968.99
2019-05-02T05:15:48.465Z,968.97
2019-05-02T05:16:40.129Z,968.94
2019-05-02T05:17:37.623Z,968.97
2019-05-02T05:18:37.955Z,969.03
2019-05-02T05:19:37.553Z,969.00
2019-05-02T05:20:38.554Z,969.05
2019-05-02T05:21:37.534Z,969.08
2019-05-02T05:22:44.304Z,969.07
2019-05-02T05:23:38.506Z,969.14
2019-05-02T05:24:40.665Z,969.03
2019-05-02T05:25:37.988Z,968.99
2019-05-02T05:26:41.006Z,969.00
2019-05-02T05:27:38.464Z,969.06
2019-05-02T05:28:42.671Z,969.08
2019-05-02T05:29:38.818Z,968.99
2019-05-02T05:30:44.926Z,968.98
2019-05-02T05:31:38.430Z,969.03
2019-05-02T05:32:37.608Z,969.08
2019-05-02T05:33:37.825Z,968.98
2019-05-02T05:34:37.953Z,969.00
2019-05-02T05:35:38.538Z,969.01
2019-05-02T05:36:37.583Z,969.01
2019-05-02T05:37:38.180Z,969.01
2019-05-02T05:38:40.440Z,968.99
2019-05-02T05:39:38.141Z,969.02
2019-05-02T05:40:37.657Z,969.04
2019-05-02T05:41:37.896Z,969.02
2019-05-02T05:42:37.898Z,968.99
2019-05-02T05:43:37.982Z,968.97
2019-05-02T05:44:37.525Z,968.99
2019-05-02T05:45:48.647Z,969.00
2019-05-02T05:46:42.420Z,968.95
2019-05-02T05:47:37.805Z,969.01
2019-05-02T05:48:40.797Z,969.02
2019-05-02T05:49:37.590Z,969.07
2019-05-02T05:50:41.253Z,969.02
2019-05-02T05:51:37.547Z,969.04
2019-05-02T05:52:38.693Z,968.95
2019-05-02T05:53:37.595Z,968.99
2019-05-02T05:54:39.547Z,968.97
2019-05-02T05:55:38.295Z,968.97
2019-05-02T05:56:42.971Z,969.01
2019-05-02T05:57:38.548Z,969.02
2019-05-02T05:58:39.858Z,968.97
2019-05-02T05:59:38.155Z,968.95
2019-05-02T06:00:38.021Z,968.98
2019-05-02T06:01:38.399Z,968.90
2019-05-02T06:02:50.814Z,968.88
2019-05-02T06:03:41.891Z,968.91
2019-05-02T06:04:38.785Z,968.91
2019-05-02T06:05:38.546Z,968.90
2019-05-02T06:06:37.762Z,968.92
2019-05-02T06:07:41.783Z,968.92
2019-05-02T06:08:38.022Z,968.91
2019-05-02T06:09:37.039Z,968.91
2019-05-02T06:10:39.086Z,968.88
2019-05-02T06:11:37.989Z,968.89
2019-05-02T06:12:36.987Z,968.92
2019-05-02T06:13:38.172Z,968.86
2019-05-02T06:14:36.958Z,968.86
2019-05-02T06:15:38.919Z,968.88
2019-05-02T06:16:36.947Z,968.88
2019-05-02T06:17:36.925Z,968.88
2019-05-02T06:18:41.722Z,968.87
2019-05-02T06:19:37.902Z,968.89
2019-05-02T06:20:36.945Z,968.84
2019-05-02T06:21:40.081Z,968.87
2019-05-02T06:22:37.987Z,968.87
2019-05-02T06:23:41.080Z,968.85
2019-05-02T06:24:36.880Z,968.86
2019-05-02T06:25:37.031Z,968.90
2019-05-02T06:26:36.828Z,968.88
2019-05-02T06:27:36.816Z,968.87
2019-05-02T06:28:41.687Z,968.90
2019-05-02T06:29:37.794Z,968.91
2019-05-02T06:30:36.811Z,968.88
2019-05-02T06:31:38.193Z,968.85
2019-05-02T06:32:37.763Z,968.83
2019-05-02T06:33:36.756Z,968.85
2019-05-02T06:34:38.762Z,968.89
2019-05-02T06:35:37.743Z,968.89
2019-05-02T06:36:38.018Z,968.91
2019-05-02T06:37:36.722Z,968.87
2019-05-02T06:38:36.699Z,968.87
2019-05-02T06:39:36.709Z,968.87
2019-05-02T06:40:39.289Z,968.84
2019-05-02T06:41:37.671Z,968.88
2019-05-02T06:42:38.054Z,968.84
2019-05-02T06:43:41.254Z,968.85
2019-05-02T06:44:37.694Z,968.88
2019-05-02T06:45:37.491Z,968.84
2019-05-02T06:46:36.618Z,968.82
2019-05-02T06:47:41.504Z,968.81
2019-05-02T06:48:37.591Z,968.82
2019-05-02T06:49:36.581Z,968.83
2019-05-02T06:50:38.921Z,968.78
2019-05-02T06:51:36.563Z,968.85
2019-05-02T06:52:36.554Z,968.83
2019-05-02T06:53:36.557Z,968.82
2019-05-02T06:54:36.543Z,968.88
2019-05-02T06:55:38.739Z,968.85
2019-05-02T06:56:36.512Z,968.88
2019-05-02T06:57:36.498Z,968.87
2019-05-02T06:58:37.190Z,968.88
2019-05-02T06:59:36.479Z,968.92
2019-05-02T07:00:49.941Z,968.86
2019-05-02T07:01:37.453Z,968.89
2019-05-02T07:02:36.442Z,968.85
2019-05-02T07:03:36.436Z,968.84
2019-05-02T07:04:36.428Z,968.86
2019-05-02T07:05:36.454Z,968.83
2019-05-02T07:06:55.919Z,968.85
2019-05-02T07:07:37.778Z,968.83
2019-05-02T07:08:36.379Z,968.83
2019-05-02T07:09:41.028Z,968.77
2019-05-02T07:10:44.596Z,968.76
2019-05-02T07:11:38.956Z,968.76
2019-05-02T07:12:36.378Z,968.72
2019-05-02T07:13:42.211Z,968.75
2019-05-02T07:14:37.317Z,968.73
2019-05-02T07:15:38.581Z,968.79
2019-05-02T07:16:38.853Z,968.79
2019-05-02T07:17:38.319Z,968.78
2019-05-02T07:18:36.276Z,968.81
2019-05-02T07:19:36.272Z,968.80
2019-05-02T07:20:40.668Z,968.77
2019-05-02T07:21:37.242Z,968.77
2019-05-02T07:22:38.809Z,968.75
2019-05-02T07:23:36.249Z,968.73
2019-05-02T07:24:36.228Z,968.75
2019-05-02T07:25:39.130Z,968.76
2019-05-02T07:26:36.190Z,968.78
2019-05-02T07:27:38.916Z,968.75
2019-05-02T07:28:40.442Z,968.73
2019-05-02T07:29:37.161Z,968.71
2019-05-02T07:30:36.316Z,968.67
2019-05-02T07:31:36.135Z,968.72
2019-05-02T07:32:36.123Z,968.68
2019-05-02T07:33:37.481Z,968.66
2019-05-02T07:34:36.119Z,968.74
2019-05-02T07:35:36.100Z,968.71
2019-05-02T07:36:36.767Z,968.70
2019-05-02T07:37:36.076Z,968.70
2019-05-02T07:38:36.057Z,968.69
2019-05-02T07:39:40.528Z,968.75
2019-05-02T07:40:36.036Z,968.68
2019-05-02T07:41:37.273Z,968.73
2019-05-02T07:42:36.953Z,968.69
2019-05-02T07:43:37.022Z,968.67
2019-05-02T07:44:35.991Z,968.69
2019-05-02T07:45:40.191Z,968.69
2019-05-02T07:46:37.001Z,968.72
2019-05-02T07:47:40.450Z,968.63
2019-05-02T07:48:36.947Z,968.62
2019-05-02T07:49:35.936Z,968.58
2019-05-02T07:50:35.930Z,968.54
2019-05-02T07:51:35.929Z,968.56
2019-05-02T07:52:35.962Z,968.54
2019-05-02T07:53:35.898Z,968.58
2019-05-02T07:54:35.884Z,968.57
2019-05-02T07:55:40.823Z,968.55
2019-05-02T07:56:36.881Z,968.56
2019-05-02T07:57:35.854Z,968.52
2019-05-02T07:58:38.440Z,968.44
2019-05-02T07:59:36.830Z,968.48
2019-05-02T08:00:37.117Z,968.51
2019-05-02T08:01:35.821Z,968.51
2019-05-02T08:02:35.804Z,968.54
2019-05-02T08:03:35.888Z,968.47
2019-05-02T08:04:35.782Z,968.51
2019-05-02T08:05:35.765Z,968.49
2019-05-02T08:06:40.004Z,968.49
2019-05-02T08:07:36.792Z,968.48
2019-05-02T08:08:36.436Z,968.44
2019-05-02T08:09:39.276Z,968.45
2019-05-02T08:10:36.709Z,968.44
2019-05-02T08:11:37.106Z,968.40
2019-05-02T08:12:35.689Z,968.42
2019-05-02T08:13:35.679Z,968.45
2019-05-02T08:14:36.421Z,968.38
2019-05-02T08:15:35.665Z,968.39
2019-05-02T08:16:35.704Z,968.38
2019-05-02T08:17:35.634Z,968.46
2019-05-02T08:18:35.648Z,968.39
2019-05-02T08:19:37.534Z,968.35
2019-05-02T08:20:36.623Z,968.40
2019-05-02T08:21:35.603Z,968.39
2019-05-02T08:22:35.607Z,968.41
2019-05-02T08:23:35.573Z,968.35
2019-05-02T08:24:37.942Z,968.29
2019-05-02T08:25:35.570Z,968.35
2019-05-02T08:26:35.544Z,968.32
2019-05-02T08:27:36.718Z,968.33
2019-05-02T08:28:35.517Z,968.29
2019-05-02T08:29:35.507Z,968.36
2019-05-02T08:30:40.347Z,968.34
2019-05-02T08:31:36.491Z,968.32
2019-05-02T08:32:35.832Z,968.38
2019-05-02T08:33:35.959Z,968.38
2019-05-02T08:34:35.453Z,968.33
2019-05-02T08:35:35.445Z,968.33
2019-05-02T08:36:35.437Z,968.34
2019-05-02T08:37:40.877Z,968.32
2019-05-02T08:38:36.409Z,968.29
2019-05-02T08:39:35.414Z,968.24
2019-05-02T08:40:35.388Z,968.32
2019-05-02T08:41:35.382Z,968.26
2019-05-02T08:42:35.380Z,968.29
2019-05-02T08:43:35.356Z,968.24
2019-05-02T08:44:35.350Z,968.27
2019-05-02T08:45:38.132Z,968.18
2019-05-02T08:46:35.329Z,968.19
2019-05-02T08:47:35.333Z,968.19
2019-05-02T08:48:36.437Z,968.20
2019-05-02T08:49:36.320Z,968.20
2019-05-02T08:50:35.323Z,968.19
2019-05-02T08:51:35.279Z,968.17
2019-05-02T08:52:36.837Z,968.15
2019-05-02T08:53:36.257Z,968.18
2019-05-02T08:54:35.241Z,968.19
2019-05-02T08:55:35.230Z,968.19
2019-05-02T08:56:35.228Z,968.14
2019-05-02T08:57:36.327Z,968.16
2019-05-02T08:58:35.199Z,968.08
2019-05-02T08:59:35.186Z,968.10
2019-05-02T09:00:37.425Z,968.10
2019-05-02T09:01:35.710Z,967.99
2019-05-02T09:02:41.414Z,968.02
2019-05-02T09:03:54.716Z,968.12
2019-05-02T09:04:36.132Z,968.00
2019-05-02T09:05:36.942Z,968.02
2019-05-02T09:06:36.133Z,967.94
2019-05-02T09:07:37.197Z,968.03
2019-05-02T09:08:35.192Z,967.99
2019-05-02T09:09:35.085Z,968.01
2019-05-02T09:10:37.063Z,967.95
2019-05-02T09:11:36.075Z,967.98
2019-05-02T09:12:36.873Z,967.99
2019-05-02T09:13:36.047Z,967.99
2019-05-02T09:14:35.028Z,968.03
2019-05-02T09:15:35.359Z,967.98
2019-05-02T09:16:35.042Z,967.92
2019-05-02T09:17:38.639Z,967.88
2019-05-02T09:18:38.270Z,967.90
2019-05-02T09:19:35.978Z,967.84
2019-05-02T09:20:34.964Z,967.87
2019-05-02T09:21:36.046Z,967.85
2019-05-02T09:22:34.949Z,967.79
2019-05-02T09:23:37.100Z,967.76
2019-05-02T09:24:34.937Z,967.84
2019-05-02T09:25:34.916Z,967.78
2019-05-02T09:26:38.445Z,967.76
2019-05-02T09:27:34.895Z,967.77
2019-05-02T09:28:34.891Z,967.75
2019-05-02T09:29:37.301Z,967.76
2019-05-02T09:30:35.867Z,967.73
2019-05-02T09:31:36.716Z,967.71
2019-05-02T09:32:37.209Z,967.66
2019-05-02T09:33:36.864Z,967.67
2019-05-02T09:34:35.822Z,967.60
2019-05-02T09:35:34.810Z,967.53
2019-05-02T09:36:34.799Z,967.54
2019-05-02T09:37:34.798Z,967.49
2019-05-02T09:38:34.863Z,967.58
2019-05-02T09:39:36.505Z,967.54
2019-05-02T09:40:34.755Z,967.50
2019-05-02T09:41:36.258Z,967.44
2019-05-02T09:42:34.736Z,967.50
2019-05-02T09:43:38.970Z,967.48
2019-05-02T09:44:34.719Z,967.41
2019-05-02T09:45:37.426Z,967.43
2019-05-02T09:46:34.691Z,967.41
2019-05-02T09:47:46.985Z,967.44
2019-05-02T09:48:35.691Z,967.39
2019-05-02T09:49:34.660Z,967.28
2019-05-02T09:50:37.937Z,967.28
2019-05-02T09:51:34.641Z,967.29
2019-05-02T09:52:39.530Z,967.30
2019-05-02T09:53:35.625Z,967.25
2019-05-02T09:54:37.013Z,967.26
2019-05-02T09:55:35.603Z,967.19
2019-05-02T09:56:34.586Z,967.20
2019-05-02T09:57:34.576Z,967.17
2019-05-02T09:58:34.566Z,967.21
2019-05-02T09:59:34.629Z,967.21
2019-05-02T10:00:36.205Z,967.19
2019-05-02T10:01:35.838Z,967.15
2019-05-02T10:02:34.523Z,967.13
2019-05-02T10:03:34.518Z,967.13
2019-05-02T10:04:34.517Z,967.10
2019-05-02T10:05:34.494Z,967.09
2019-05-02T10:06:34.491Z,967.05
2019-05-02T10:07:34.473Z,967.09
2019-05-02T10:08:38.307Z,967.18
2019-05-02T10:09:35.456Z,967.24
2019-05-02T10:10:37.037Z,967.11
2019-05-02T10:11:35.441Z,967.04
2019-05-02T10:12:34.442Z,967.14
2019-05-02T10:13:34.421Z,967.06
2019-05-02T10:14:34.418Z,967.09
2019-05-02T10:15:34.460Z,967.03
2019-05-02T10:16:34.377Z,966.98
2019-05-02T10:17:37.478Z,966.94
2019-05-02T10:18:35.368Z,966.87
2019-05-02T10:19:34.347Z,966.90
2019-05-02T10:20:36.391Z,966.90
2019-05-02T10:21:34.326Z,966.85
2019-05-02T10:22:39.312Z,966.84
2019-05-02T10:23:35.302Z,966.88
2019-05-02T10:24:34.298Z,966.91
2019-05-02T10:25:38.692Z,966.88
2019-05-02T10:26:34.269Z,966.89
2019-05-02T10:27:38.493Z,966.88
2019-05-02T10:28:35.253Z,966.87
2019-05-02T10:29:34.244Z,966.90
2019-05-02T10:30:36.057Z,966.98
2019-05-02T10:31:37.564Z,966.90
2019-05-02T10:32:34.211Z,966.86
2019-05-02T10:33:37.622Z,966.81
2019-05-02T10:34:34.189Z,966.86
2019-05-02T10:35:40.400Z,966.81
2019-05-02T10:36:35.284Z,966.83
2019-05-02T10:37:38.240Z,966.80
2019-05-02T10:38:35.158Z,966.73
2019-05-02T10:39:37.811Z,966.73
2019-05-02T10:40:34.135Z,966.78
2019-05-02T10:41:39.445Z,966.74
2019-05-02T10:42:35.102Z,966.70
2019-05-02T10:43:34.088Z,966.71
2019-05-02T10:44:36.453Z,966.69
2019-05-02T10:45:34.072Z,966.66
2019-05-02T10:46:37.653Z,966.66
2019-05-02T10:47:36.332Z,966.63
2019-05-02T10:48:34.035Z,966.62
2019-05-02T10:49:34.036Z,966.70
2019-05-02T10:50:34.012Z,966.69
2019-05-02T10:51:34.005Z,966.62
2019-05-02T10:52:34.395Z,966.62
2019-05-02T10:53:33.990Z,966.58
2019-05-02T10:54:37.567Z,966.53
2019-05-02T10:55:33.957Z,966.53
2019-05-02T10:56:33.953Z,966.58
2019-05-02T10:57:33.943Z,966.54
2019-05-02T10:58:35.728Z,966.51
2019-05-02T10:59:33.937Z,966.47
2019-05-02T11:00:33.906Z,966.46
2019-05-02T11:01:33.892Z,966.42
2019-05-02T11:02:33.883Z,966.29
2019-05-02T11:03:38.111Z,966.33
2019-05-02T11:04:34.864Z,966.40
2019-05-02T11:05:37.072Z,966.34
2019-05-02T11:06:37.106Z,966.32
2019-05-02T11:07:34.866Z,966.32
2019-05-02T11:08:36.811Z,966.39
2019-05-02T11:09:34.813Z,966.32
2019-05-02T11:10:33.810Z,966.33
2019-05-02T11:11:33.788Z,966.40
2019-05-02T11:12:41.866Z,966.35
2019-05-02T11:13:34.767Z,966.30
2019-05-02T11:14:33.765Z,966.37
2019-05-02T11:15:33.770Z,966.30
2019-05-02T11:16:33.763Z,966.29
2019-05-02T11:17:36.188Z,966.30
2019-05-02T11:18:42.308Z,966.24
2019-05-02T11:19:34.709Z,966.20
2019-05-02T11:20:33.732Z,966.14
2019-05-02T11:21:33.681Z,966.15
2019-05-02T11:22:33.693Z,966.16
2019-05-02T11:23:33.703Z,966.12
2019-05-02T11:24:33.654Z,966.14
2019-05-02T11:25:33.646Z,966.06
2019-05-02T11:26:33.641Z,966.08
2019-05-02T11:27:33.633Z,966.01
2019-05-02T11:28:33.658Z,966.05
2019-05-02T11:29:33.597Z,966.05
2019-05-02T11:30:33.588Z,966.02
2019-05-02T11:31:33.584Z,966.02
2019-05-02T11:32:33.570Z,966.03
2019-05-02T11:33:33.638Z,966.04
2019-05-02T11:34:33.573Z,966.05
2019-05-02T11:35:33.533Z,966.04
2019-05-02T11:36:33.527Z,966.06
2019-05-02T11:37:33.518Z,966.01
2019-05-02T11:38:33.838Z,965.97
2019-05-02T11:39:44.138Z,966.04
2019-05-02T11:40:34.480Z,966.01
2019-05-02T11:41:33.530Z,966.05
2019-05-02T11:42:33.463Z,966.02
2019-05-02T11:43:37.254Z,966.01
2019-05-02T11:44:34.451Z,966.04
2019-05-02T11:45:33.445Z,966.10
2019-05-02T11:46:37.597Z,966.05
2019-05-02T11:47:34.430Z,966.03
2019-05-02T11:48:33.399Z,965.96
2019-05-02T11:49:33.402Z,965.98
2019-05-02T11:50:35.478Z,965.94
2019-05-02T11:51:33.381Z,965.90
2019-05-02T11:52:37.351Z,965.99
2019-05-02T11:53:33.346Z,965.94
2019-05-02T11:54:33.334Z,965.92
2019-05-02T11:55:33.327Z,965.91
2019-05-02T11:56:33.481Z,965.91
2019-05-02T11:57:33.363Z,965.93
2019-05-02T11:58:33.309Z,965.89
2019-05-02T11:59:33.278Z,965.87
2019-05-02T12:00:33.273Z,965.90
2019-05-02T12:01:37.189Z,965.88
2019-05-02T12:02:34.246Z,965.92
2019-05-02T12:03:36.879Z,965.91
2019-05-02T12:04:33.225Z,965.91
2019-05-02T12:05:35.679Z,965.87
2019-05-02T12:06:33.314Z,965.84
2019-05-02T12:07:33.205Z,965.88
2019-05-02T12:08:33.199Z,965.88
2019-05-02T12:09:33.169Z,965.96
2019-05-02T12:10:36.645Z,965.86
2019-05-02T12:11:33.171Z,965.93
2019-05-02T12:12:36.256Z,965.93
2019-05-02T12:13:33.142Z,965.89
2019-05-02T12:14:36.341Z,965.80
2019-05-02T12:15:33.106Z,965.88
2019-05-02T12:16:33.095Z,965.84
2019-05-02T12:17:33.104Z,965.88
2019-05-02T12:18:33.074Z,965.83
2019-05-02T12:19:33.061Z,965.84
2019-05-02T12:20:36.499Z,965.79
2019-05-02T12:21:33.045Z,965.80
2019-05-02T12:22:33.036Z,965.81
2019-05-02T12:23:36.050Z,965.84
2019-05-02T12:24:36.334Z,965.80
2019-05-02T12:25:33.991Z,965.79
2019-05-02T12:26:33.022Z,965.83
2019-05-02T12:27:33.018Z,965.76
2019-05-02T12:28:32.962Z,965.85